Time;durP1;ratioP1;P1;durP2;ratioP2;P2;SDS_P1;SDS_P2;PMS_P1;PMS_P2;Temp;Humidity;BMP_temperature;BMP_pressure;BME280_temperature;BME280_humidity;BME280_pressure;Samples;Min_cycle;Max_cycle;Signal;HPM_P1;HPM_P2
2022/12/06 00:03:24;;;;;;;;;;;16.90;41.50;;;;;;8330542;28;19920;-42
2022/12/06 00:07:25;;;;;;;;;;;16.90;41.50;;;;;;8329672;28;20401;-42
2022/12/06 00:11:26;;;;;;;;;;;16.90;41.50;;;;;;8330407;28;19933;-42
2022/12/06 00:15:27;;;;;;;;;;;16.80;41.40;;;;;;8330317;28;20047;-42
2022/12/06 00:19:27;;;;;;;;;;;16.90;41.50;;;;;;8329618;28;20040;-42
2022/12/06 00:23:28;;;;;;;;;;;16.90;41.50;;;;;;8330091;28;19913;-42
2022/12/06 00:27:28;;;;;;;;;;;16.80;41.40;;;;;;8333390;28;19917;-42
2022/12/06 00:31:30;;;;;;;;;;;16.90;41.50;;;;;;8336144;28;19953;-42
2022/12/06 00:35:30;;;;;;;;;;;16.80;41.50;;;;;;8336596;28;19928;-42
2022/12/06 00:39:31;;;;;;;;;;;16.90;41.50;;;;;;8336518;28;19916;-42
2022/12/06 00:43:32;;;;;;;;;;;16.90;41.50;;;;;;8336075;28;19914;-42
2022/12/06 00:47:32;;;;;;;;;;;16.80;41.40;;;;;;8336643;28;19925;-42
2022/12/06 00:51:34;;;;;;;;;;;16.80;41.40;;;;;;8336482;28;19932;-42
2022/12/06 00:55:34;;;;;;;;;;;16.80;41.40;;;;;;8335635;28;19964;-43
2022/12/06 00:59:34;;;;;;;;;;;16.80;41.40;;;;;;8336087;28;19992;-42
2022/12/06 01:03:35;;;;;;;;;;;16.80;41.40;;;;;;8336064;28;20384;-42
2022/12/06 01:07:35;;;;;;;;;;;16.80;41.40;;;;;;8335131;28;20289;-42
2022/12/06 01:11:37;;;;;;;;;;;16.80;41.40;;;;;;8335671;28;20019;-42
2022/12/06 01:15:37;;;;;;;;;;;16.80;41.40;;;;;;8335323;28;19917;-42
2022/12/06 01:19:37;;;;;;;;;;;16.80;41.40;;;;;;8334960;28;19921;-43
2022/12/06 01:23:38;;;;;;;;;;;16.80;41.40;;;;;;8335717;28;20433;-42
2022/12/06 01:27:39;;;;;;;;;;;16.80;41.50;;;;;;8334700;28;19921;-42
2022/12/06 01:31:39;;;;;;;;;;;16.80;41.40;;;;;;8334970;28;19929;-43
2022/12/06 01:35:40;;;;;;;;;;;16.80;41.40;;;;;;8334846;28;19921;-42
2022/12/06 01:39:40;;;;;;;;;;;16.80;41.30;;;;;;8333162;28;19925;-42
2022/12/06 01:43:42;;;;;;;;;;;16.80;41.40;;;;;;8335182;28;20007;-43
2022/12/06 01:47:42;;;;;;;;;;;16.80;41.30;;;;;;8334620;28;19924;-43
2022/12/06 01:51:45;;;;;;;;;;;16.80;41.30;;;;;;8333823;28;19933;-42
2022/12/06 01:55:46;;;;;;;;;;;16.80;41.30;;;;;;8334377;28;19960;-43
2022/12/06 01:59:46;;;;;;;;;;;16.80;41.30;;;;;;8334178;28;19913;-42
2022/12/06 02:03:47;;;;;;;;;;;16.80;41.30;;;;;;8333753;28;19919;-42
2022/12/06 02:07:48;;;;;;;;;;;16.80;41.30;;;;;;8333869;28;20285;-42
2022/12/06 02:11:48;;;;;;;;;;;16.80;41.30;;;;;;8316563;28;19925;-42
2022/12/06 02:15:53;;;;;;;;;;;16.80;41.30;;;;;;8310488;28;19917;-42
2022/12/06 02:19:58;;;;;;;;;;;16.80;41.20;;;;;;8333442;28;19967;-42
2022/12/06 02:24:02;;;;;;;;;;;16.80;41.30;;;;;;8333683;28;20293;-43
2022/12/06 02:28:34;;;;;;;;;;;16.80;41.30;;;;;;8333220;28;19917;-42
2022/12/06 02:32:41;;;;;;;;;;;16.80;41.30;;;;;;8277923;28;19979;-43
2022/12/06 02:36:51;;;;;;;;;;;16.80;41.20;;;;;;8314784;28;19943;-42
2022/12/06 02:40:55;;;;;;;;;;;16.80;41.30;;;;;;8332903;28;20016;-42
2022/12/06 02:44:58;;;;;;;;;;;16.80;41.20;;;;;;8332901;28;19996;-42
2022/12/06 02:49:01;;;;;;;;;;;16.80;41.20;;;;;;8332222;28;20290;-42
2022/12/06 02:53:02;;;;;;;;;;;16.80;41.30;;;;;;8332741;28;19923;-43
2022/12/06 02:57:03;;;;;;;;;;;16.80;41.20;;;;;;8332311;28;19924;-43
2022/12/06 03:01:05;;;;;;;;;;;16.80;41.20;;;;;;8331665;28;19917;-43
2022/12/06 03:05:10;;;;;;;;;;;16.80;41.30;;;;;;8332142;28;20390;-42
2022/12/06 03:09:23;;;;;;;;;;;16.80;41.30;;;;;;8332516;28;20008;-42
2022/12/06 03:13:36;;;;;;;;;;;16.70;41.20;;;;;;8331581;28;20370;-42
2022/12/06 03:17:48;;;;;;;;;;;16.70;41.10;;;;;;8331636;28;19924;-42
2022/12/06 03:21:53;;;;;;;;;;;16.80;41.30;;;;;;8331171;28;19923;-42
2022/12/06 03:25:54;;;;;;;;;;;16.70;41.20;;;;;;8331390;28;19940;-44
2022/12/06 03:29:57;;;;;;;;;;;16.70;41.30;;;;;;8331574;28;19925;-43
2022/12/06 03:34:01;;;;;;;;;;;16.80;41.20;;;;;;8331037;28;19996;-42
2022/12/06 03:38:08;;;;;;;;;;;16.70;41.10;;;;;;8331231;28;19918;-43
2022/12/06 03:42:09;;;;;;;;;;;16.70;41.10;;;;;;8330954;28;19924;-42
2022/12/06 03:46:14;;;;;;;;;;;16.70;41.20;;;;;;8330425;28;19991;-43
2022/12/06 03:50:21;;;;;;;;;;;16.80;41.20;;;;;;8330634;28;19921;-43
2022/12/06 03:54:21;;;;;;;;;;;16.80;41.20;;;;;;8330917;28;20000;-43
2022/12/06 03:58:22;;;;;;;;;;;16.70;41.10;;;;;;8330097;28;19956;-43
2022/12/06 04:02:22;;;;;;;;;;;16.70;41.10;;;;;;8329932;28;19943;-43
2022/12/06 04:06:23;;;;;;;;;;;16.70;41.10;;;;;;8330364;28;19947;-43
2022/12/06 04:10:23;;;;;;;;;;;16.70;41.10;;;;;;8329720;28;19929;-43
2022/12/06 04:14:31;;;;;;;;;;;16.70;41.10;;;;;;8330776;28;19944;-43
2022/12/06 04:18:31;;;;;;;;;;;16.70;41.20;;;;;;8330145;28;19917;-43
2022/12/06 04:28:40;;;;;;;;;;;16.80;41.30;;;;;;8330219;28;19978;-43
2022/12/06 04:39:49;;;;;;;;;;;16.90;41.30;;;;;;8329801;28;19924;-43
2022/12/06 04:43:50;;;;;;;;;;;16.90;41.20;;;;;;8329953;28;19921;-43
2022/12/06 04:47:50;;;;;;;;;;;16.90;41.20;;;;;;8330097;28;19921;-44
2022/12/06 04:51:51;;;;;;;;;;;16.90;41.10;;;;;;8329179;28;19929;-43
2022/12/06 04:55:52;;;;;;;;;;;17.00;41.20;;;;;;8329591;28;20000;-44
2022/12/06 04:59:52;;;;;;;;;;;16.90;41.20;;;;;;8329730;28;19913;-43
2022/12/06 05:03:53;;;;;;;;;;;16.90;41.10;;;;;;8329120;28;19996;-43
2022/12/06 05:07:53;;;;;;;;;;;16.90;41.00;;;;;;8311275;28;19922;-43
2022/12/06 05:11:53;;;;;;;;;;;16.90;40.90;;;;;;8306440;28;20348;-43
2022/12/06 05:15:56;;;;;;;;;;;16.90;41.00;;;;;;8335160;28;19959;-43
2022/12/06 05:19:56;;;;;;;;;;;16.90;40.90;;;;;;8335882;28;19913;-43
2022/12/06 05:23:57;;;;;;;;;;;16.90;40.90;;;;;;8335269;28;19917;-43
2022/12/06 05:27:57;;;;;;;;;;;16.90;40.90;;;;;;8334681;28;20388;-43
2022/12/06 05:31:58;;;;;;;;;;;16.80;40.80;;;;;;8334826;28;19929;-43
2022/12/06 05:35:58;;;;;;;;;;;16.80;40.90;;;;;;8335092;28;20461;-43
2022/12/06 05:39:59;;;;;;;;;;;16.80;41.00;;;;;;8334759;28;19957;-43
2022/12/06 05:43:59;;;;;;;;;;;16.80;41.00;;;;;;8334769;28;19917;-43
2022/12/06 05:47:59;;;;;;;;;;;16.80;41.10;;;;;;8334537;28;19944;-43
2022/12/06 05:52:00;;;;;;;;;;;16.70;41.00;;;;;;8334062;28;19929;-43
2022/12/06 05:56:05;;;;;;;;;;;16.70;41.00;;;;;;8334433;28;19940;-44
2022/12/06 06:00:05;;;;;;;;;;;16.70;41.00;;;;;;8334703;28;19917;-44
2022/12/06 06:04:06;;;;;;;;;;;16.70;41.00;;;;;;8333726;28;19925;-43
2022/12/06 06:08:06;;;;;;;;;;;16.70;41.00;;;;;;8333880;28;19968;-44
2022/12/06 06:12:07;;;;;;;;;;;16.70;41.00;;;;;;8333877;28;19972;-43
2022/12/06 06:16:07;;;;;;;;;;;16.70;41.00;;;;;;8333400;28;19917;-43
2022/12/06 06:20:09;;;;;;;;;;;16.70;41.00;;;;;;8333789;28;20313;-43
2022/12/06 06:24:09;;;;;;;;;;;16.70;41.00;;;;;;8333003;28;19921;-43
2022/12/06 06:28:10;;;;;;;;;;;16.70;40.90;;;;;;8332829;28;20266;-44
2022/12/06 06:32:12;;;;;;;;;;;16.70;41.00;;;;;;8333276;28;19929;-43
2022/12/06 06:36:12;;;;;;;;;;;16.70;41.00;;;;;;8333471;28;19913;-44
2022/12/06 06:40:13;;;;;;;;;;;16.70;41.00;;;;;;8332401;28;19917;-44
2022/12/06 06:44:13;;;;;;;;;;;16.70;40.90;;;;;;8332941;28;20366;-44
2022/12/06 06:48:14;;;;;;;;;;;16.70;41.00;;;;;;8332699;28;19924;-44
2022/12/06 06:52:14;;;;;;;;;;;16.70;40.90;;;;;;8332104;28;19925;-44
2022/12/06 06:56:15;;;;;;;;;;;16.70;40.90;;;;;;8332565;28;19913;-44
2022/12/06 07:00:16;;;;;;;;;;;16.70;40.90;;;;;;8332286;28;19964;-44
2022/12/06 07:04:16;;;;;;;;;;;16.70;41.00;;;;;;8331695;28;19952;-44
2022/12/06 07:08:17;;;;;;;;;;;16.70;41.00;;;;;;8332124;28;19921;-44
2022/12/06 07:12:17;;;;;;;;;;;16.70;41.00;;;;;;8331801;28;19925;-43
2022/12/06 07:16:18;;;;;;;;;;;16.70;41.00;;;;;;8331348;28;19914;-43
2022/12/06 07:20:18;;;;;;;;;;;16.70;41.00;;;;;;8331509;28;19917;-43
2022/12/06 07:24:19;;;;;;;;;;;16.70;40.90;;;;;;8331532;28;19940;-44
2022/12/06 07:28:19;;;;;;;;;;;16.70;41.00;;;;;;8330885;28;19917;-44
2022/12/06 07:32:20;;;;;;;;;;;16.70;41.00;;;;;;8331279;28;20386;-43
2022/12/06 07:36:22;;;;;;;;;;;16.70;40.90;;;;;;8330422;28;19996;-44
2022/12/06 07:40:22;;;;;;;;;;;16.70;41.00;;;;;;8330703;28;20004;-43
2022/12/06 07:48:41;;;;;;;;;;;16.70;40.90;;;;;;8330444;28;19973;-44
2022/12/06 07:52:42;;;;;;;;;;;16.70;40.90;;;;;;8330712;28;19925;-44
2022/12/06 07:56:43;;;;;;;;;;;16.70;40.90;;;;;;8330960;28;19960;-43
2022/12/06 08:00:44;;;;;;;;;;;16.70;41.00;;;;;;8329611;28;19917;-43
2022/12/06 08:04:44;;;;;;;;;;;16.70;41.50;;;;;;8330284;28;19917;-43
2022/12/06 08:08:45;;;;;;;;;;;16.60;40.90;;;;;;8329390;28;19929;-43
2022/12/06 08:12:45;;;;;;;;;;;16.70;41.00;;;;;;8329569;28;19925;-43
2022/12/06 08:16:46;;;;;;;;;;;16.70;41.50;;;;;;8330549;28;19940;-43
2022/12/06 08:20:46;;;;;;;;;;;16.70;41.00;;;;;;8330015;28;20027;-43
2022/12/06 08:24:47;;;;;;;;;;;16.70;40.90;;;;;;8329537;28;20238;-43
2022/12/06 08:28:47;;;;;;;;;;;16.70;41.00;;;;;;8329731;28;19917;-44
2022/12/06 08:32:47;;;;;;;;;;;16.70;41.00;;;;;;8329502;28;19925;-43
2022/12/06 08:36:48;;;;;;;;;;;16.70;41.50;;;;;;8329102;28;19913;-43
2022/12/06 08:40:48;;;;;;;;;;;16.70;40.90;;;;;;8329615;28;19917;-42
2022/12/06 08:44:50;;;;;;;;;;;16.70;40.90;;;;;;8329739;28;20298;-42
2022/12/06 08:48:51;;;;;;;;;;;16.70;40.90;;;;;;8332991;28;19927;-43
2022/12/06 08:52:51;;;;;;;;;;;16.70;41.00;;;;;;8336162;28;19921;-43
2022/12/06 08:56:52;;;;;;;;;;;16.70;40.90;;;;;;8336325;28;19920;-44
2022/12/06 09:00:52;;;;;;;;;;;16.70;41.00;;;;;;8335443;28;20016;-43
2022/12/06 09:04:52;;;;;;;;;;;16.70;40.90;;;;;;8335765;28;20331;-43
2022/12/06 09:08:53;;;;;;;;;;;16.70;41.00;;;;;;8335260;28;19921;-43
2022/12/06 09:12:53;;;;;;;;;;;16.70;41.00;;;;;;8335118;28;19917;-44
2022/12/06 09:16:54;;;;;;;;;;;16.70;40.90;;;;;;8335627;28;19967;-43
2022/12/06 09:20:54;;;;;;;;;;;16.70;40.90;;;;;;8335264;28;19917;-44
2022/12/06 09:24:55;;;;;;;;;;;16.70;40.90;;;;;;8334629;28;20357;-43
2022/12/06 09:28:56;;;;;;;;;;;16.70;40.90;;;;;;8335610;28;20378;-43
2022/12/06 09:32:57;;;;;;;;;;;16.70;40.90;;;;;;8334835;28;19928;-45
2022/12/06 09:37:00;;;;;;;;;;;16.70;40.90;;;;;;8334497;28;20382;-43
2022/12/06 09:41:12;;;;;;;;;;;16.70;40.90;;;;;;8334626;28;19925;-43
2022/12/06 09:45:22;;;;;;;;;;;16.70;40.90;;;;;;8334459;28;20380;-43
2022/12/06 09:49:30;;;;;;;;;;;16.70;40.90;;;;;;8333741;28;19921;-44
2022/12/06 09:53:39;;;;;;;;;;;16.70;40.90;;;;;;8334293;28;20409;-43
2022/12/06 09:57:39;;;;;;;;;;;16.70;41.00;;;;;;8333823;28;19925;-43
2022/12/06 10:01:43;;;;;;;;;;;16.70;40.90;;;;;;8332667;28;19925;-44
2022/12/06 10:06:00;;;;;;;;;;;16.70;41.00;;;;;;8334102;28;19918;-44
2022/12/06 10:10:10;;;;;;;;;;;16.70;40.90;;;;;;8333310;28;19975;-44
2022/12/06 10:14:29;;;;;;;;;;;16.70;41.00;;;;;;8333650;28;19917;-44
2022/12/06 10:18:29;;;;;;;;;;;16.70;41.00;;;;;;8333601;28;19940;-44
2022/12/06 10:22:46;;;;;;;;;;;16.70;41.00;;;;;;8333204;28;19917;-44
2022/12/06 10:26:50;;;;;;;;;;;16.80;41.00;;;;;;8333271;28;19971;-45
2022/12/06 10:30:54;;;;;;;;;;;16.80;41.00;;;;;;8332740;28;20291;-44
2022/12/06 10:34:56;;;;;;;;;;;16.80;40.90;;;;;;8332969;28;19917;-45
2022/12/06 10:39:03;;;;;;;;;;;16.80;40.90;;;;;;8332947;28;19913;-45
2022/12/06 10:43:13;;;;;;;;;;;16.80;41.10;;;;;;8332229;28;20513;-44
2022/12/06 10:47:17;;;;;;;;;;;16.80;41.00;;;;;;8332991;28;19917;-47
2022/12/06 10:51:20;;;;;;;;;;;16.80;41.10;;;;;;8332474;28;19971;-44
2022/12/06 10:55:27;;;;;;;;;;;16.80;41.00;;;;;;8332053;28;20290;-45
2022/12/06 10:59:50;;;;;;;;;;;16.80;41.00;;;;;;8332295;28;20362;-44
2022/12/06 11:04:02;;;;;;;;;;;16.80;41.10;;;;;;8311900;28;19925;-46
2022/12/06 11:08:05;;;;;;;;;;;16.80;41.00;;;;;;8332457;28;19927;-44
2022/12/06 11:12:18;;;;;;;;;;;16.80;41.00;;;;;;8331608;28;20331;-44
2022/12/06 11:16:47;;;;;;;;;;;16.80;41.10;;;;;;8331339;28;20435;-45
2022/12/06 11:20:52;;;;;;;;;;;16.80;40.90;;;;;;8262614;28;19972;-45
2022/12/06 11:25:01;;;;;;;;;;;16.80;40.90;;;;;;8311735;28;19917;-47
2022/12/06 11:29:05;;;;;;;;;;;16.80;40.90;;;;;;8331395;28;19921;-46
2022/12/06 11:33:06;;;;;;;;;;;16.80;41.00;;;;;;8331528;28;20328;-43
2022/12/06 11:37:07;;;;;;;;;;;16.80;40.90;;;;;;8330680;28;19918;-44
2022/12/06 11:41:09;;;;;;;;;;;16.90;40.90;;;;;;8331036;28;19917;-45
2022/12/06 11:45:15;;;;;;;;;;;16.80;40.90;;;;;;8331041;28;19917;-44
2022/12/06 11:49:17;;;;;;;;;;;16.80;40.90;;;;;;8330432;28;19925;-44
2022/12/06 11:53:21;;;;;;;;;;;16.80;40.90;;;;;;8331086;28;19921;-44
2022/12/06 11:57:24;;;;;;;;;;;16.80;40.90;;;;;;8330762;28;19935;-45
2022/12/06 12:01:43;;;;;;;;;;;16.80;41.00;;;;;;8330156;28;20330;-44
2022/12/06 12:05:44;;;;;;;;;;;16.80;40.90;;;;;;8330784;28;19917;-44
2022/12/06 12:09:47;;;;;;;;;;;16.80;41.10;;;;;;8330346;28;19932;-44
2022/12/06 12:14:10;;;;;;;;;;;16.80;41.00;;;;;;8330628;28;19913;-44
2022/12/06 12:18:18;;;;;;;;;;;16.90;41.00;;;;;;8322180;28;20440;-45
2022/12/06 12:22:39;;;;;;;;;;;16.80;40.90;;;;;;8329253;28;20012;-43
2022/12/06 12:26:40;;;;;;;;;;;16.90;41.00;;;;;;8330058;28;19917;-43
2022/12/06 12:30:50;;;;;;;;;;;16.90;41.00;;;;;;8329525;28;19987;-43
2022/12/06 12:34:51;;;;;;;;;;;16.80;41.00;;;;;;8330119;28;20166;-44
2022/12/06 12:38:54;;;;;;;;;;;16.80;40.90;;;;;;8329962;28;19921;-43
2022/12/06 12:43:17;;;;;;;;;;;16.80;40.90;;;;;;8329507;28;19953;-45
2022/12/06 12:47:18;;;;;;;;;;;16.80;41.00;;;;;;8321342;28;20369;-45
2022/12/06 12:51:22;;;;;;;;;;;16.80;40.90;;;;;;8328678;28;19963;-42
2022/12/06 12:55:26;;;;;;;;;;;16.90;41.10;;;;;;8349645;28;20393;-43
2022/12/06 12:59:31;;;;;;;;;;;16.90;41.10;;;;;;8329774;28;19924;-44
2022/12/06 13:03:32;;;;;;;;;;;16.90;41.10;;;;;;8329663;28;19924;-44
2022/12/06 13:07:34;;;;;;;;;;;16.90;41.10;;;;;;8328837;28;20016;-44
2022/12/06 13:11:40;;;;;;;;;;;16.90;41.10;;;;;;8329224;28;20388;-44
2022/12/06 13:15:48;;;;;;;;;;;16.90;41.00;;;;;;8328847;28;19933;-44
2022/12/06 13:19:49;;;;;;;;;;;16.80;41.10;;;;;;8329293;28;19956;-45
2022/12/06 13:23:52;;;;;;;;;;;16.90;41.10;;;;;;8329336;28;20393;-44
2022/12/06 13:27:55;;;;;;;;;;;16.90;41.10;;;;;;8328692;28;19918;-43
2022/12/06 13:31:56;;;;;;;;;;;16.80;41.00;;;;;;8329029;28;19925;-44
2022/12/06 13:35:59;;;;;;;;;;;16.90;41.10;;;;;;8332654;28;20004;-42
2022/12/06 13:40:01;;;;;;;;;;;16.90;41.00;;;;;;8334449;28;19979;-44
2022/12/06 13:44:01;;;;;;;;;;;16.90;41.00;;;;;;8334815;28;19917;-43
2022/12/06 13:48:02;;;;;;;;;;;16.90;41.10;;;;;;8334430;28;20007;-45
2022/12/06 13:52:02;;;;;;;;;;;16.90;41.60;;;;;;8333709;28;19925;-45
2022/12/06 13:56:21;;;;;;;;;;;16.90;41.10;;;;;;8334464;28;20289;-44
2022/12/06 14:00:32;;;;;;;;;;;16.90;41.00;;;;;;8334144;28;19928;-43
2022/12/06 14:04:34;;;;;;;;;;;16.90;41.10;;;;;;8333420;28;19923;-45
2022/12/06 14:08:34;;;;;;;;;;;16.90;41.00;;;;;;8333670;28;19925;-44
2022/12/06 14:12:35;;;;;;;;;;;16.90;41.10;;;;;;8333537;28;19983;-43
2022/12/06 14:16:38;;;;;;;;;;;16.90;41.00;;;;;;8333181;28;19924;-45
2022/12/06 14:20:40;;;;;;;;;;;16.90;41.10;;;;;;8333271;28;19944;-45
2022/12/06 14:24:41;;;;;;;;;;;16.90;41.10;;;;;;8333072;28;19913;-43
2022/12/06 14:28:42;;;;;;;;;;;16.90;41.00;;;;;;8333539;28;20000;-45
2022/12/06 14:32:43;;;;;;;;;;;16.90;41.00;;;;;;8332978;28;20370;-44
2022/12/06 14:36:44;;;;;;;;;;;16.90;41.10;;;;;;8332750;28;20059;-44
2022/12/06 14:45:05;;;;;;;;;;;16.90;41.60;;;;;;8336569;28;20400;-44
2022/12/06 14:53:33;;;;;;;;;;;16.90;41.10;;;;;;8333113;28;19929;-44
2022/12/06 14:57:38;;;;;;;;;;;16.90;41.10;;;;;;8332312;28;19917;-43
2022/12/06 15:01:49;;;;;;;;;;;16.90;41.00;;;;;;8331996;28;20405;-44
2022/12/06 15:06:10;;;;;;;;;;;16.90;41.00;;;;;;8332462;28;19917;-44
2022/12/06 15:10:20;;;;;;;;;;;16.90;41.10;;;;;;8331056;28;20012;-43
2022/12/06 15:14:23;;;;;;;;;;;16.90;41.00;;;;;;8331650;28;20351;-43
2022/12/06 15:18:24;;;;;;;;;;;16.90;40.90;;;;;;8331790;28;19917;-44
2022/12/06 15:22:27;;;;;;;;;;;16.90;41.00;;;;;;8331234;28;20030;-43
2022/12/06 15:26:27;;;;;;;;;;;16.90;41.10;;;;;;8331527;28;19924;-44
2022/12/06 15:30:27;;;;;;;;;;;16.90;41.10;;;;;;8331105;28;19925;-43
2022/12/06 15:34:29;;;;;;;;;;;16.90;41.10;;;;;;8331190;28;20278;-44
2022/12/06 15:38:29;;;;;;;;;;;16.90;41.00;;;;;;8331401;28;20396;-43
2022/12/06 15:42:30;;;;;;;;;;;16.90;41.10;;;;;;8331099;28;19921;-43
2022/12/06 15:46:34;;;;;;;;;;;16.90;41.10;;;;;;8330439;28;19917;-44
2022/12/06 15:50:34;;;;;;;;;;;16.90;41.00;;;;;;8330984;28;19925;-44
2022/12/06 15:54:35;;;;;;;;;;;16.90;41.10;;;;;;8330993;28;20370;-43
2022/12/06 15:58:37;;;;;;;;;;;16.90;41.00;;;;;;8329469;28;20306;-44
2022/12/06 16:02:37;;;;;;;;;;;16.90;41.00;;;;;;8330505;28;19917;-43
2022/12/06 16:06:37;;;;;;;;;;;16.90;41.00;;;;;;8327286;28;20012;-43
2022/12/06 16:10:38;;;;;;;;;;;16.90;40.90;;;;;;8328990;28;19976;-43
2022/12/06 16:14:38;;;;;;;;;;;16.80;40.90;;;;;;8330409;28;20420;-43
2022/12/06 16:18:39;;;;;;;;;;;16.80;41.10;;;;;;8331371;28;20761;-42
2022/12/06 16:26:58;;;;;;;;;;;17.00;41.20;;;;;;8334195;28;19971;-44
2022/12/06 16:30:59;;;;;;;;;;;17.00;41.10;;;;;;8329351;28;20279;-44
2022/12/06 16:34:59;;;;;;;;;;;17.10;41.10;;;;;;8330355;28;19913;-44
2022/12/06 16:39:02;;;;;;;;;;;17.10;41.00;;;;;;8329375;28;19963;-44
2022/12/06 16:43:02;;;;;;;;;;;17.20;41.00;;;;;;8328997;28;19917;-44
2022/12/06 16:47:06;;;;;;;;;;;17.20;41.00;;;;;;8329474;28;20413;-45
2022/12/06 16:51:06;;;;;;;;;;;17.30;41.00;;;;;;8329468;28;19929;-44
2022/12/06 16:55:07;;;;;;;;;;;17.30;41.00;;;;;;8318414;28;20378;-44
2022/12/06 16:59:14;;;;;;;;;;;17.40;41.00;;;;;;8309805;28;19917;-47
2022/12/06 17:03:15;;;;;;;;;;;17.40;40.90;;;;;;8315412;28;19921;-48
2022/12/06 17:07:15;;;;;;;;;;;17.50;41.00;;;;;;8313203;28;20340;-47
2022/12/06 17:15:37;;;;;;;;;;;17.60;41.70;;;;;;8333888;28;19920;-45
2022/12/06 17:19:40;;;;;;;;;;;17.70;41.20;;;;;;8325999;28;19917;-47
2022/12/06 17:23:40;;;;;;;;;;;17.70;41.20;;;;;;8349604;28;20374;-48
2022/12/06 17:27:41;;;;;;;;;;;17.80;41.10;;;;;;8328757;28;19928;-48
2022/12/06 17:31:42;;;;;;;;;;;17.80;41.10;;;;;;8310400;28;19933;-48
2022/12/06 17:35:42;;;;;;;;;;;17.90;41.10;;;;;;8335081;28;19966;-49
2022/12/06 17:39:43;;;;;;;;;;;17.90;41.00;;;;;;8316613;28;20286;-48
2022/12/06 17:43:43;;;;;;;;;;;18.00;41.10;;;;;;8326557;28;19949;-48
2022/12/06 17:47:44;;;;;;;;;;;18.10;41.10;;;;;;8333177;28;20409;-48
2022/12/06 17:51:45;;;;;;;;;;;18.10;41.10;;;;;;8311470;28;20373;-48
2022/12/06 17:55:45;;;;;;;;;;;18.20;41.00;;;;;;8313637;28;19918;-48
2022/12/06 17:59:46;;;;;;;;;;;18.20;41.00;;;;;;8334370;28;19957;-50
2022/12/06 18:03:54;;;;;;;;;;;18.30;41.00;;;;;;8333874;28;19917;-47
2022/12/06 18:07:55;;;;;;;;;;;18.30;41.00;;;;;;8320888;28;19948;-47
2022/12/06 18:11:56;;;;;;;;;;;18.30;41.00;;;;;;8323754;28;19925;-48
2022/12/06 18:15:56;;;;;;;;;;;18.40;41.00;;;;;;8327032;28;19917;-48
2022/12/06 18:19:59;;;;;;;;;;;18.40;41.00;;;;;;8326477;28;19918;-49
2022/12/06 18:23:59;;;;;;;;;;;18.40;41.00;;;;;;8311086;28;19917;-48
2022/12/06 18:28:00;;;;;;;;;;;18.40;41.00;;;;;;8328672;28;19925;-47
2022/12/06 18:32:01;;;;;;;;;;;18.50;41.00;;;;;;8331336;28;19936;-48
2022/12/06 18:36:02;;;;;;;;;;;18.50;40.90;;;;;;8331810;28;19971;-50
2022/12/06 18:40:02;;;;;;;;;;;18.60;41.00;;;;;;8330887;28;19924;-47
2022/12/06 18:44:03;;;;;;;;;;;18.60;40.90;;;;;;8331592;28;19917;-48
2022/12/06 18:48:04;;;;;;;;;;;18.60;41.00;;;;;;8328948;28;19917;-46
2022/12/06 18:52:04;;;;;;;;;;;18.70;41.00;;;;;;8330170;28;20386;-46
2022/12/06 18:56:05;;;;;;;;;;;18.70;40.90;;;;;;8330419;28;20019;-49
2022/12/06 19:00:06;;;;;;;;;;;18.80;40.90;;;;;;8330272;28;19917;-48
2022/12/06 19:04:08;;;;;;;;;;;18.80;40.90;;;;;;8310449;28;20282;-49
2022/12/06 19:08:08;;;;;;;;;;;18.90;40.90;;;;;;8306392;28;19944;-51
2022/12/06 19:12:09;;;;;;;;;;;18.90;40.70;;;;;;8305590;28;20350;-48
2022/12/06 19:16:09;;;;;;;;;;;19.00;40.70;;;;;;8328305;28;20002;-47
2022/12/06 19:20:10;;;;;;;;;;;19.10;40.60;;;;;;8327012;28;19944;-46
2022/12/06 19:24:11;;;;;;;;;;;19.10;40.50;;;;;;8310773;28;20334;-48
2022/12/06 19:28:12;;;;;;;;;;;19.00;40.60;;;;;;8309370;28;20010;-46
2022/12/06 19:32:12;;;;;;;;;;;19.00;40.70;;;;;;8328962;28;19929;-48
2022/12/06 19:36:17;;;;;;;;;;;19.00;40.70;;;;;;8330000;28;20385;-47
2022/12/06 19:40:18;;;;;;;;;;;19.00;40.60;;;;;;8330395;28;19925;-46
2022/12/06 19:44:18;;;;;;;;;;;18.90;40.70;;;;;;8331380;28;20354;-47
2022/12/06 19:48:20;;;;;;;;;;;18.90;40.60;;;;;;8329868;28;19927;-46
2022/12/06 19:52:20;;;;;;;;;;;18.90;40.60;;;;;;8330544;28;19926;-48
2022/12/06 19:56:21;;;;;;;;;;;18.90;40.60;;;;;;8331460;28;20291;-47
2022/12/06 20:00:21;;;;;;;;;;;18.80;40.50;;;;;;8330837;28;19921;-46
2022/12/06 20:04:23;;;;;;;;;;;18.80;40.50;;;;;;8330306;28;19967;-46
2022/12/06 20:08:23;;;;;;;;;;;18.80;40.60;;;;;;8319451;28;20351;-47
2022/12/06 20:12:24;;;;;;;;;;;18.70;40.60;;;;;;8303058;28;19929;-48
2022/12/06 20:16:26;;;;;;;;;;;18.60;40.60;;;;;;8329840;28;20225;-48
2022/12/06 20:20:28;;;;;;;;;;;18.60;40.70;;;;;;8330591;28;19923;-47
2022/12/06 20:24:28;;;;;;;;;;;18.60;40.70;;;;;;8330434;28;19913;-47
2022/12/06 20:28:29;;;;;;;;;;;18.50;40.80;;;;;;8329812;28;19925;-48
2022/12/06 20:32:29;;;;;;;;;;;18.50;40.80;;;;;;8330308;28;20008;-47
2022/12/06 20:36:32;;;;;;;;;;;18.50;40.90;;;;;;8330618;28;19921;-48
2022/12/06 20:40:32;;;;;;;;;;;18.40;40.80;;;;;;8329762;28;20075;-47
2022/12/06 20:44:33;;;;;;;;;;;18.40;40.90;;;;;;8333788;28;19925;-47
2022/12/06 20:48:35;;;;;;;;;;;18.30;40.90;;;;;;8336789;28;19951;-46
2022/12/06 20:52:35;;;;;;;;;;;18.30;41.00;;;;;;8336356;28;19964;-46
2022/12/06 20:56:37;;;;;;;;;;;18.30;41.00;;;;;;8336702;28;20020;-47
2022/12/06 21:00:39;;;;;;;;;;;18.20;41.00;;;;;;8336505;28;20329;-46
2022/12/06 21:04:40;;;;;;;;;;;18.20;41.10;;;;;;8335847;28;19923;-47
2022/12/06 21:08:40;;;;;;;;;;;18.20;41.10;;;;;;8335951;28;19921;-46
2022/12/06 21:12:41;;;;;;;;;;;18.10;41.10;;;;;;8335453;28;20128;-45
2022/12/06 21:16:42;;;;;;;;;;;18.10;41.20;;;;;;8335958;28;20381;-48
2022/12/06 21:20:42;;;;;;;;;;;18.00;41.10;;;;;;8335779;28;19921;-47
2022/12/06 21:24:43;;;;;;;;;;;18.10;41.20;;;;;;8335041;28;20489;-48
2022/12/06 21:28:43;;;;;;;;;;;18.00;41.30;;;;;;8335632;28;19917;-47
2022/12/06 21:32:44;;;;;;;;;;;18.00;41.30;;;;;;8335545;28;19948;-46
2022/12/06 21:36:44;;;;;;;;;;;17.90;41.30;;;;;;8334818;28;19913;-45
2022/12/06 21:40:45;;;;;;;;;;;17.90;41.30;;;;;;8335107;28;20271;-47
2022/12/06 21:44:45;;;;;;;;;;;17.90;41.40;;;;;;8335000;28;19917;-47
2022/12/06 21:48:52;;;;;;;;;;;17.80;41.30;;;;;;8334522;28;19924;-45
2022/12/06 21:52:53;;;;;;;;;;;17.80;41.40;;;;;;8334921;28;19963;-47
2022/12/06 21:56:55;;;;;;;;;;;17.80;41.50;;;;;;8333480;28;19913;-47
2022/12/06 22:01:01;;;;;;;;;;;17.80;41.50;;;;;;8334047;28;19916;-47
2022/12/06 22:05:02;;;;;;;;;;;17.80;41.50;;;;;;8334535;28;19917;-47
2022/12/06 22:09:04;;;;;;;;;;;17.70;41.40;;;;;;8334157;28;19971;-47
2022/12/06 22:13:04;;;;;;;;;;;17.70;41.40;;;;;;8333540;28;19925;-47
2022/12/06 22:17:05;;;;;;;;;;;17.70;41.40;;;;;;8334196;28;19949;-46
2022/12/06 22:21:09;;;;;;;;;;;17.70;41.40;;;;;;8333613;28;19925;-46
2022/12/06 22:25:09;;;;;;;;;;;17.70;41.30;;;;;;8333139;28;20001;-48
2022/12/06 22:29:10;;;;;;;;;;;17.70;41.40;;;;;;8333512;28;19923;-46
2022/12/06 22:33:10;;;;;;;;;;;17.80;41.40;;;;;;8333416;28;19947;-47
2022/12/06 22:37:10;;;;;;;;;;;17.70;41.40;;;;;;8333073;28;19917;-46
2022/12/06 22:41:11;;;;;;;;;;;17.70;41.30;;;;;;8333447;28;19917;-46
2022/12/06 22:45:11;;;;;;;;;;;17.70;41.30;;;;;;8333235;28;19928;-46
2022/12/06 22:49:12;;;;;;;;;;;17.70;41.30;;;;;;8332771;28;19963;-47
2022/12/06 22:53:12;;;;;;;;;;;17.70;41.30;;;;;;8332691;28;19955;-45
2022/12/06 22:57:13;;;;;;;;;;;17.70;41.30;;;;;;8332831;28;19948;-46
2022/12/06 23:01:14;;;;;;;;;;;17.70;41.30;;;;;;8331128;28;20004;-45
2022/12/06 23:05:16;;;;;;;;;;;17.70;41.30;;;;;;8319025;28;20377;-45
2022/12/06 23:09:16;;;;;;;;;;;17.70;41.30;;;;;;8332554;28;19967;-46
2022/12/06 23:13:17;;;;;;;;;;;17.70;41.30;;;;;;8331661;28;20385;-45
2022/12/06 23:17:17;;;;;;;;;;;17.60;41.20;;;;;;8332605;28;19960;-46
2022/12/06 23:21:19;;;;;;;;;;;17.60;41.30;;;;;;8331871;28;19963;-45
2022/12/06 23:25:20;;;;;;;;;;;17.60;41.30;;;;;;8331411;28;19947;-46
2022/12/06 23:29:20;;;;;;;;;;;17.60;41.30;;;;;;8331936;28;19923;-47
2022/12/06 23:33:21;;;;;;;;;;;17.60;41.30;;;;;;8331454;28;19921;-46
2022/12/06 23:37:21;;;;;;;;;;;17.60;41.30;;;;;;8331194;28;20302;-44
2022/12/06 23:41:23;;;;;;;;;;;17.60;41.30;;;;;;8331584;28;19928;-45
2022/12/06 23:45:23;;;;;;;;;;;17.60;41.30;;;;;;8331377;28;19939;-46
2022/12/06 23:49:24;;;;;;;;;;;17.60;41.40;;;;;;8330712;28;19921;-47
2022/12/06 23:53:24;;;;;;;;;;;17.50;41.40;;;;;;8330930;28;20297;-45
2022/12/06 23:57:25;;;;;;;;;;;17.50;41.40;;;;;;8331232;28;19913;-46
